Time;durP1;ratioP1;P1;durP2;ratioP2;P2;SDS_P1;SDS_P2;PMS_P1;PMS_P2;Temp;Humidity;BMP_temperature;BMP_pressure;BME280_temperature;BME280_humidity;BME280_pressure;Samples;Min_cycle;Max_cycle;Signal;HPM_P1;HPM_P2
2023/04/29 00:00:35;;;;;;;14.82;6.95;;;13.30;52.90;;;;;;5076905;28;20021;-81
2023/04/29 00:03:01;;;;;;;10.98;7.07;;;13.20;53.20;;;;;;5076498;28;20028;-79
2023/04/29 00:05:26;;;;;;;10.77;7.05;;;13.20;53.30;;;;;;5076757;28;20062;-80
2023/04/29 00:07:52;;;;;;;14.93;7.57;;;13.20;53.60;;;;;;5075449;28;20470;-82
2023/04/29 00:10:18;;;;;;;13.45;6.70;;;13.20;53.50;;;;;;5074984;28;20429;-80
2023/04/29 00:12:44;;;;;;;11.98;6.68;;;13.20;53.70;;;;;;5076553;28;20024;-81
2023/04/29 00:15:10;;;;;;;14.35;7.97;;;13.20;53.70;;;;;;5075283;28;20065;-78
2023/04/29 00:17:36;;;;;;;10.63;6.50;;;13.30;53.90;;;;;;5076119;28;20474;-80
2023/04/29 00:20:03;;;;;;;15.57;7.75;;;13.30;54.30;;;;;;5075293;28;20020;-77
2023/04/29 00:22:28;;;;;;;14.82;8.30;;;13.30;54.50;;;;;;5071696;28;20478;-79
2023/04/29 00:24:54;;;;;;;10.85;8.93;;;13.30;53.70;;;;;;5056110;28;20104;-78
2023/04/29 00:27:20;;;;;;;14.35;7.82;;;13.30;52.70;;;;;;5074071;28;20374;-79
2023/04/29 00:29:46;;;;;;;11.07;8.23;;;13.30;53.70;;;;;;5074759;28;20356;-81
2023/04/29 00:32:11;;;;;;;11.07;7.80;;;13.30;54.30;;;;;;5074564;28;20016;-84
2023/04/29 00:34:37;;;;;;;18.58;9.57;;;13.30;52.70;;;;;;5074773;28;20036;-80
2023/04/29 00:37:03;;;;;;;19.73;7.72;;;13.30;52.80;;;;;;5074647;28;20083;-82
2023/04/29 00:39:28;;;;;;;10.77;7.28;;;13.20;53.20;;;;;;5061332;28;20086;-82
2023/04/29 00:41:54;;;;;;;9.77;7.13;;;13.20;53.10;;;;;;5074333;28;20036;-81
2023/04/29 00:44:20;;;;;;;12.63;7.75;;;13.20;53.20;;;;;;5074679;28;20031;-82
2023/04/29 00:46:46;;;;;;;17.17;8.77;;;13.20;53.20;;;;;;5074638;28;20063;-80
2023/04/29 00:49:13;;;;;;;10.40;7.45;;;13.20;53.40;;;;;;5075846;28;20077;-82
2023/04/29 00:51:40;;;;;;;14.38;7.63;;;13.20;53.20;;;;;;5075268;28;20027;-81
2023/04/29 00:54:08;;;;;;;11.00;7.50;;;13.20;53.50;;;;;;5074806;28;20043;-81
2023/04/29 00:56:36;;;;;;;21.42;8.30;;;13.20;53.60;;;;;;5072608;28;20023;-81
2023/04/29 00:59:03;;;;;;;15.50;8.27;;;13.20;54.10;;;;;;5074551;28;20017;-79
2023/04/29 01:01:30;;;;;;;12.30;7.55;;;13.10;54.80;;;;;;5052360;28;20041;-80
2023/04/29 01:03:57;;;;;;;14.98;7.53;;;13.20;55.00;;;;;;5053040;28;20071;-80
2023/04/29 01:06:36;;;;;;;14.90;6.65;;;13.10;54.40;;;;;;5035434;28;20032;-79
2023/04/29 01:09:22;;;;;;;13.18;6.28;;;13.10;54.70;;;;;;5052654;28;20057;-80
2023/04/29 01:12:00;;;;;;;11.55;6.55;;;13.10;55.20;;;;;;5052858;28;20040;-79
2023/04/29 01:14:27;;;;;;;9.85;7.38;;;13.10;55.50;;;;;;5051710;28;20041;-81
2023/04/29 01:16:59;;;;;;;13.77;7.63;;;13.10;55.90;;;;;;5035796;28;20052;-80
2023/04/29 01:19:36;;;;;;;14.63;7.75;;;13.20;55.70;;;;;;5052649;28;20021;-81
2023/04/29 01:22:01;;;;;;;14.40;8.35;;;13.10;54.10;;;;;;5034385;28;20067;-81
2023/04/29 01:24:27;;;;;;;14.43;8.52;;;13.10;54.40;;;;;;5052388;28;20033;-81
2023/04/29 01:27:06;;;;;;;10.52;7.93;;;13.10;54.10;;;;;;5052086;28;20033;-80
2023/04/29 01:29:52;;;;;;;12.90;7.97;;;13.10;54.40;;;;;;5035532;28;20025;-80
2023/04/29 01:32:29;;;;;;;18.65;7.90;;;13.00;54.20;;;;;;5049726;28;20447;-79
2023/04/29 01:35:19;;;;;;;10.18;7.47;;;13.00;54.20;;;;;;5072888;28;20028;-81
2023/04/29 01:38:22;;;;;;;10.32;6.60;;;13.00;54.10;;;;;;5069050;28;20052;-81
2023/04/29 01:40:58;;;;;;;18.77;8.68;;;13.00;54.50;;;;;;5074266;28;20020;-80
2023/04/29 01:43:29;;;;;;;15.55;8.13;;;13.00;54.90;;;;;;5067879;28;20045;-80
2023/04/29 01:45:56;;;;;;;11.00;7.20;;;13.00;55.40;;;;;;5074286;28;20478;-80
2023/04/29 01:48:23;;;;;;;9.48;7.05;;;13.00;55.50;;;;;;5074233;28;20462;-81
2023/04/29 01:50:49;;;;;;;11.55;6.50;;;12.90;56.10;;;;;;5072942;28;20044;-80
2023/04/29 01:53:15;;;;;;;10.95;6.20;;;12.90;56.50;;;;;;5074114;28;20486;-80
2023/04/29 01:55:42;;;;;;;10.13;6.72;;;12.90;57.10;;;;;;5074131;28;20020;-82
2023/04/29 01:58:09;;;;;;;11.07;6.88;;;12.80;57.80;;;;;;5072780;28;20031;-80
2023/04/29 02:00:35;;;;;;;10.35;6.65;;;12.90;58.30;;;;;;5072768;28;20016;-80
2023/04/29 02:03:00;;;;;;;11.02;5.78;;;12.90;58.80;;;;;;5073899;28;20513;-82
2023/04/29 02:05:31;;;;;;;11.02;6.28;;;12.90;59.40;;;;;;5073883;28;20035;-83
2023/04/29 02:07:56;;;;;;;10.50;6.07;;;12.80;58.50;;;;;;5072836;28;20024;-81
2023/04/29 02:10:22;;;;;;;12.77;5.60;;;12.70;59.20;;;;;;5073716;28;20028;-82
2023/04/29 02:12:48;;;;;;;11.25;6.55;;;12.70;60.40;;;;;;5072583;28;20105;-81
2023/04/29 02:15:14;;;;;;;9.98;6.63;;;12.70;59.50;;;;;;5073933;28;20051;-81
2023/04/29 02:17:40;;;;;;;9.27;6.25;;;12.70;60.00;;;;;;5072343;28;20489;-82
2023/04/29 02:20:06;;;;;;;12.65;6.63;;;12.70;60.00;;;;;;5073868;28;20062;-82
2023/04/29 02:22:32;;;;;;;9.00;6.47;;;12.70;60.70;;;;;;5072234;28;20025;-81
2023/04/29 02:24:58;;;;;;;12.18;7.80;;;12.70;60.80;;;;;;5072519;28;20362;-82
2023/04/29 02:27:25;;;;;;;10.80;7.20;;;12.60;61.10;;;;;;5073721;28;20067;-81
2023/04/29 02:29:50;;;;;;;9.57;6.15;;;12.70;60.30;;;;;;5072029;28;20028;-81
2023/04/29 02:32:18;;;;;;;8.55;6.07;;;12.70;59.90;;;;;;5073382;28;20040;-82
2023/04/29 02:34:45;;;;;;;10.30;6.18;;;12.70;59.90;;;;;;5067576;28;20032;-82
2023/04/29 02:37:10;;;;;;;12.63;6.25;;;12.70;60.20;;;;;;5072160;28;20356;-81
2023/04/29 02:39:36;;;;;;;8.85;5.55;;;12.70;60.70;;;;;;5066504;28;20140;-82
2023/04/29 02:42:02;;;;;;;9.00;5.72;;;12.70;59.00;;;;;;5073505;28;20036;-81
2023/04/29 02:44:30;;;;;;;9.23;6.18;;;12.70;58.80;;;;;;5071862;28;20054;-83
2023/04/29 02:46:56;;;;;;;8.50;5.90;;;12.80;59.30;;;;;;5073582;28;20031;-80
2023/04/29 02:49:22;;;;;;;15.98;6.97;;;12.80;58.80;;;;;;5073294;28;20032;-81
2023/04/29 02:51:48;;;;;;;13.55;7.30;;;12.80;59.20;;;;;;5072979;28;20021;-81
2023/04/29 02:54:15;;;;;;;10.32;5.97;;;12.80;59.60;;;;;;5071771;28;20447;-80
2023/04/29 02:56:41;;;;;;;6.95;5.25;;;12.80;58.70;;;;;;5073485;28;20091;-81
2023/04/29 02:59:07;;;;;;;10.52;5.85;;;12.80;59.70;;;;;;5071736;28;20063;-81
2023/04/29 03:01:33;;;;;;;11.50;6.03;;;12.80;58.80;;;;;;5072009;28;20056;-80
2023/04/29 03:03:59;;;;;;;9.02;5.80;;;12.80;59.30;;;;;;5071943;28;20059;-81
2023/04/29 03:06:26;;;;;;;12.52;7.13;;;12.80;60.70;;;;;;5071585;28;20444;-82
2023/04/29 03:08:52;;;;;;;10.43;6.35;;;12.90;58.70;;;;;;5073244;28;20333;-81
2023/04/29 03:11:19;;;;;;;9.70;5.90;;;12.90;57.60;;;;;;5072103;28;20017;-81
2023/04/29 03:13:45;;;;;;;9.85;5.97;;;12.80;57.60;;;;;;5071527;28;20063;-83
2023/04/29 03:16:13;;;;;;;15.65;5.93;;;12.80;57.20;;;;;;5071995;28;20036;-81
2023/04/29 03:18:40;;;;;;;10.32;6.25;;;12.90;57.60;;;;;;5071761;28;20219;-82
2023/04/29 03:21:05;;;;;;;11.32;5.97;;;12.90;58.00;;;;;;5072167;28;20340;-81
2023/04/29 03:23:31;;;;;;;9.95;5.93;;;12.90;57.40;;;;;;5072681;28;20483;-81
2023/04/29 03:25:57;;;;;;;14.10;7.03;;;12.90;57.50;;;;;;5072828;28;20462;-80
2023/04/29 03:28:23;;;;;;;16.20;6.63;;;12.90;58.50;;;;;;5071740;28;20447;-81
2023/04/29 03:30:49;;;;;;;13.27;5.88;;;12.90;58.20;;;;;;5073095;28;20019;-81
2023/04/29 03:33:15;;;;;;;8.35;5.82;;;12.90;58.80;;;;;;5072799;28;20029;-81
2023/04/29 03:35:41;;;;;;;10.50;6.57;;;12.90;59.10;;;;;;5071288;28;20082;-82
2023/04/29 03:38:06;;;;;;;8.10;5.50;;;12.90;58.60;;;;;;5071960;28;20028;-81
2023/04/29 03:40:32;;;;;;;10.25;6.68;;;12.90;59.30;;;;;;5071343;28;20028;-81
2023/04/29 03:42:59;;;;;;;14.45;6.80;;;12.90;58.30;;;;;;5071612;28;20098;-80
2023/04/29 03:45:25;;;;;;;12.85;6.63;;;12.90;59.10;;;;;;5073186;28;20107;-81
2023/04/29 03:47:52;;;;;;;10.88;6.70;;;12.90;57.30;;;;;;5071133;28;20193;-81
2023/04/29 03:50:18;;;;;;;12.43;6.45;;;13.00;59.10;;;;;;5071239;28;20028;-81
2023/04/29 03:52:44;;;;;;;6.40;5.65;;;13.00;58.90;;;;;;5071692;28;20024;-80
2023/04/29 03:55:11;;;;;;;10.95;5.30;;;12.90;58.30;;;;;;5072306;28;20099;-81
2023/04/29 03:57:37;;;;;;;11.52;5.63;;;12.90;58.10;;;;;;5071641;28;20460;-81
2023/04/29 04:00:03;;;;;;;11.55;6.57;;;12.90;59.20;;;;;;5072698;28;20026;-80
2023/04/29 04:02:29;;;;;;;11.88;6.53;;;12.80;59.10;;;;;;5071861;28;20094;-83
2023/04/29 04:04:55;;;;;;;13.13;6.82;;;12.80;60.70;;;;;;5072915;28;20396;-81
2023/04/29 04:07:21;;;;;;;11.05;6.43;;;12.80;60.80;;;;;;5075017;28;20103;-82
2023/04/29 04:09:46;;;;;;;13.15;5.93;;;12.70;61.80;;;;;;5074604;28;20025;-80
2023/04/29 04:12:12;;;;;;;8.60;4.68;;;12.70;60.50;;;;;;5075057;28;20078;-81
2023/04/29 04:14:38;;;;;;;17.02;6.32;;;12.70;60.60;;;;;;5075651;28;20044;-80
2023/04/29 04:17:04;;;;;;;15.98;6.53;;;12.70;60.80;;;;;;5074984;28;20114;-81
2023/04/29 04:19:30;;;;;;;12.68;6.55;;;12.80;62.10;;;;;;5075989;28;20101;-80
2023/04/29 04:21:56;;;;;;;8.73;4.90;;;12.70;62.30;;;;;;5071117;28;20024;-81
2023/04/29 04:24:22;;;;;;;8.10;5.45;;;12.70;62.00;;;;;;5075780;28;20016;-81
2023/04/29 04:26:48;;;;;;;8.80;5.53;;;12.80;62.50;;;;;;5072163;28;20032;-80
2023/04/29 04:29:13;;;;;;;8.50;5.25;;;12.80;62.10;;;;;;5075258;28;20020;-80
2023/04/29 04:31:39;;;;;;;9.50;5.50;;;12.80;61.80;;;;;;5074697;28;20021;-82
2023/04/29 04:34:05;;;;;;;9.05;5.35;;;12.70;61.80;;;;;;5075767;28;20032;-81
2023/04/29 04:36:31;;;;;;;10.45;6.32;;;12.70;61.90;;;;;;5074129;28;20023;-81
2023/04/29 04:38:57;;;;;;;8.38;5.20;;;12.70;63.50;;;;;;5075416;28;20417;-81
2023/04/29 04:41:23;;;;;;;7.50;5.05;;;12.70;63.90;;;;;;5074152;28;20520;-80
2023/04/29 04:43:49;;;;;;;10.45;6.18;;;12.80;64.70;;;;;;5074477;28;20020;-81
2023/04/29 04:46:16;;;;;;;11.13;6.35;;;12.80;65.40;;;;;;5075662;28;20032;-80
2023/04/29 04:48:42;;;;;;;9.73;6.00;;;12.80;63.70;;;;;;5074318;28;20031;-79
2023/04/29 04:51:12;;;;;;;6.90;5.30;;;12.80;62.40;;;;;;5075254;28;20104;-81
2023/04/29 04:53:39;;;;;;;10.80;5.60;;;12.90;63.70;;;;;;5075583;28;20037;-80
2023/04/29 04:56:06;;;;;;;10.45;6.25;;;12.90;62.80;;;;;;5068566;28;20017;-81
2023/04/29 04:58:32;;;;;;;11.43;6.05;;;13.00;63.00;;;;;;5069317;28;20024;-81
2023/04/29 05:00:59;;;;;;;10.15;6.95;;;13.00;63.20;;;;;;5075344;28;20396;-80
2023/04/29 05:03:25;;;;;;;12.52;6.60;;;13.10;63.30;;;;;;5075077;28;20071;-80
2023/04/29 05:05:55;;;;;;;9.98;6.30;;;13.10;62.00;;;;;;5074591;28;20063;-81
2023/04/29 05:08:21;;;;;;;9.15;5.88;;;13.10;62.40;;;;;;5074995;28;20179;-81
2023/04/29 05:10:46;;;;;;;11.38;5.30;;;13.10;63.60;;;;;;5073916;28;20107;-82
2023/04/29 05:13:12;;;;;;;10.60;5.32;;;13.10;62.20;;;;;;5073427;28;20481;-82
2023/04/29 05:15:38;;;;;;;7.80;5.57;;;13.20;62.70;;;;;;5074793;28;20039;-81
2023/04/29 05:18:04;;;;;;;10.18;5.55;;;13.20;63.00;;;;;;5074649;28;20020;-82
2023/04/29 05:20:29;;;;;;;6.32;4.90;;;13.30;62.80;;;;;;5075007;28;20483;-80
2023/04/29 05:22:55;;;;;;;7.57;5.38;;;13.30;64.50;;;;;;5067971;28;20024;-81
2023/04/29 05:25:21;;;;;;;7.25;5.50;;;13.30;62.30;;;;;;5072854;28;20066;-82
2023/04/29 05:27:47;;;;;;;9.75;5.35;;;13.30;63.10;;;;;;5074966;28;20093;-82
2023/04/29 05:30:12;;;;;;;6.43;4.88;;;13.30;62.10;;;;;;5073230;28;20036;-81
2023/04/29 05:32:39;;;;;;;16.52;7.97;;;13.40;62.90;;;;;;5073028;28;20027;-80
2023/04/29 05:35:05;;;;;;;17.98;7.57;;;13.40;63.00;;;;;;5074100;28;20056;-82
2023/04/29 05:37:31;;;;;;;22.23;10.20;;;13.50;63.90;;;;;;5074715;28;20024;-80
2023/04/29 05:40:03;;;;;;;14.70;9.65;;;13.60;63.70;;;;;;5074610;28;20032;-83
2023/04/29 05:42:33;;;;;;;16.95;10.05;;;13.70;62.50;;;;;;5069538;28;20115;-80
2023/04/29 05:44:58;;;;;;;16.75;10.32;;;13.80;63.00;;;;;;5071783;28;20060;-81
2023/04/29 05:47:24;;;;;;;12.70;8.45;;;13.80;61.80;;;;;;5073682;28;20078;-81
2023/04/29 05:49:50;;;;;;;12.40;6.20;;;13.90;62.20;;;;;;5073359;28;20025;-80
2023/04/29 05:52:16;;;;;;;7.50;5.80;;;13.90;60.50;;;;;;5072948;28;20495;-80
2023/04/29 05:54:41;;;;;;;15.27;6.47;;;14.00;62.00;;;;;;5073595;28;20054;-81
2023/04/29 05:57:08;;;;;;;9.15;6.65;;;14.00;63.80;;;;;;5074344;28;20056;-82
2023/04/29 05:59:33;;;;;;;10.45;5.78;;;14.00;63.00;;;;;;5072852;28;20020;-81
2023/04/29 06:02:00;;;;;;;9.25;5.78;;;14.00;62.20;;;;;;5071993;28;20438;-82
2023/04/29 06:04:26;;;;;;;6.35;5.63;;;13.90;61.90;;;;;;5073694;28;20025;-80
2023/04/29 06:06:56;;;;;;;8.50;5.97;;;13.90;62.50;;;;;;5072604;28;20074;-80
2023/04/29 06:09:25;;;;;;;10.40;6.30;;;13.90;60.90;;;;;;5071808;28;20505;-79
2023/04/29 06:11:51;;;;;;;6.68;5.50;;;13.90;62.00;;;;;;5071521;28;20056;-81
2023/04/29 06:14:17;;;;;;;10.68;5.18;;;13.90;61.50;;;;;;5057280;28;20079;-80
2023/04/29 06:16:43;;;;;;;7.00;5.20;;;13.90;59.90;;;;;;5059250;28;20036;-80
2023/04/29 06:19:09;;;;;;;7.90;6.07;;;14.00;62.50;;;;;;5074372;28;20024;-81
2023/04/29 06:21:34;;;;;;;6.32;5.75;;;13.90;60.10;;;;;;5073467;28;20029;-81
2023/04/29 06:24:01;;;;;;;9.27;7.03;;;13.90;62.60;;;;;;5072806;28;20024;-82
2023/04/29 06:26:28;;;;;;;7.25;6.10;;;14.00;61.50;;;;;;5073436;28;20017;-80
2023/04/29 06:28:54;;;;;;;7.90;6.10;;;14.00;62.70;;;;;;5074004;28;20016;-80
2023/04/29 06:31:20;;;;;;;9.73;6.65;;;14.00;60.80;;;;;;5072697;28;20056;-81
2023/04/29 06:33:45;;;;;;;15.93;7.75;;;14.10;62.10;;;;;;5072359;28;20482;-79
2023/04/29 06:36:11;;;;;;;8.98;6.40;;;14.20;61.40;;;;;;5072261;28;20028;-81
2023/04/29 06:38:37;;;;;;;6.72;5.65;;;14.20;60.70;;;;;;5072742;28;20351;-81
2023/04/29 06:41:03;;;;;;;6.82;5.57;;;14.30;60.90;;;;;;5073540;28;20020;-80
2023/04/29 06:43:29;;;;;;;5.95;4.50;;;14.30;60.20;;;;;;5073728;28;20131;-80
2023/04/29 06:45:56;;;;;;;9.15;6.35;;;14.30;61.00;;;;;;5071722;28;20139;-80
2023/04/29 06:48:22;;;;;;;10.25;4.72;;;14.40;61.50;;;;;;5072577;28;20112;-81
2023/04/29 06:50:55;;;;;;;7.40;5.10;;;14.30;59.50;;;;;;5073794;28;20028;-80
2023/04/29 06:53:22;;;;;;;9.32;5.13;;;14.40;58.70;;;;;;5073748;28;20032;-80
2023/04/29 06:55:48;;;;;;;8.73;5.35;;;14.50;58.90;;;;;;5072216;28;20031;-80
2023/04/29 06:58:18;;;;;;;13.18;5.88;;;14.50;59.20;;;;;;5073521;28;20020;-81
2023/04/29 07:00:45;;;;;;;9.85;5.93;;;14.60;62.60;;;;;;5073316;28;20020;-80
2023/04/29 07:03:12;;;;;;;12.07;6.50;;;14.70;59.90;;;;;;5071962;28;20082;-81
2023/04/29 07:05:39;;;;;;;10.63;5.78;;;14.70;60.70;;;;;;5071747;28;20028;-81
2023/04/29 07:08:05;;;;;;;7.32;5.22;;;14.80;60.00;;;;;;5073619;28;20020;-80
2023/04/29 07:10:31;;;;;;;7.55;5.68;;;14.80;57.80;;;;;;5071987;28;20500;-79
2023/04/29 07:12:59;;;;;;;5.97;4.82;;;14.70;56.90;;;;;;5072257;28;20112;-80
2023/04/29 07:15:25;;;;;;;11.75;5.70;;;14.80;59.80;;;;;;5073554;28;20398;-83
2023/04/29 07:17:51;;;;;;;9.98;5.30;;;14.80;58.70;;;;;;5073336;28;20017;-80
2023/04/29 07:20:17;;;;;;;8.80;5.30;;;14.80;57.30;;;;;;5073468;28;20481;-81
2023/04/29 07:22:43;;;;;;;10.40;4.85;;;14.90;56.80;;;;;;5072259;28;20081;-80
2023/04/29 07:25:09;;;;;;;11.63;5.78;;;15.00;59.50;;;;;;5071950;28;20036;-80
2023/04/29 07:27:36;;;;;;;7.97;5.40;;;15.00;58.30;;;;;;5073193;28;20032;-81
2023/04/29 07:30:03;;;;;;;15.20;5.78;;;15.10;59.30;;;;;;5072342;28;20094;-82
2023/04/29 07:32:30;;;;;;;8.15;5.38;;;15.10;58.50;;;;;;5071730;28;20035;-81
2023/04/29 07:34:57;;;;;;;10.20;5.47;;;15.10;59.40;;;;;;5071968;28;20047;-81
2023/04/29 07:37:23;;;;;;;8.23;6.38;;;15.10;59.10;;;;;;5074632;28;20074;-79
2023/04/29 07:39:49;;;;;;;10.52;5.63;;;15.10;57.90;;;;;;5075667;28;20028;-80
2023/04/29 07:42:15;;;;;;;12.88;6.70;;;15.10;58.20;;;;;;5076980;28;20055;-80
2023/04/29 07:44:40;;;;;;;10.60;7.03;;;15.10;59.80;;;;;;5076305;28;20406;-80
2023/04/29 07:47:06;;;;;;;11.10;6.28;;;15.20;61.50;;;;;;5076842;28;20059;-80
2023/04/29 07:49:32;;;;;;;9.18;6.07;;;15.30;60.00;;;;;;5076014;28;20073;-80
2023/04/29 07:51:58;;;;;;;12.55;6.43;;;15.30;60.40;;;;;;5076909;28;20036;-81
2023/04/29 07:54:24;;;;;;;10.00;6.38;;;15.40;61.10;;;;;;5075646;28;20024;-81
2023/04/29 07:56:49;;;;;;;8.75;6.30;;;15.50;62.10;;;;;;5075609;28;20032;-80
2023/04/29 07:59:15;;;;;;;12.75;6.82;;;15.60;60.60;;;;;;5070381;28;20345;-80
2023/04/29 08:01:41;;;;;;;19.83;7.88;;;15.80;62.30;;;;;;5076001;28;20048;-80
2023/04/29 08:04:07;;;;;;;16.90;7.97;;;16.00;61.30;;;;;;5075744;28;20028;-79
2023/04/29 08:06:34;;;;;;;19.48;9.35;;;16.10;62.30;;;;;;5074297;28;20028;-79
2023/04/29 08:09:00;;;;;;;42.05;14.63;;;16.30;61.20;;;;;;5075017;28;20020;-81
2023/04/29 08:11:26;;;;;;;10.88;7.50;;;16.50;61.10;;;;;;5080185;28;20440;-80
2023/04/29 08:13:53;;;;;;;10.98;7.07;;;16.50;58.20;;;;;;5095180;28;20482;-79
2023/04/29 08:16:20;;;;;;;9.07;6.43;;;16.40;58.10;;;;;;5089696;28;20494;-80
2023/04/29 08:18:46;;;;;;;10.57;6.90;;;16.30;58.20;;;;;;5079311;28;20056;-80
2023/04/29 08:21:12;;;;;;;14.52;8.10;;;16.30;60.00;;;;;;5075885;28;20166;-80
2023/04/29 08:23:38;;;;;;;11.77;6.95;;;16.20;61.10;;;;;;5075180;28;20032;-78
2023/04/29 08:26:05;;;;;;;12.43;7.03;;;16.30;60.90;;;;;;5075254;28;20020;-79
2023/04/29 08:28:30;;;;;;;11.65;6.55;;;16.30;60.20;;;;;;5084538;28;20021;-79
2023/04/29 08:30:56;;;;;;;8.57;6.60;;;16.30;60.10;;;;;;5074875;28;20036;-80
2023/04/29 08:33:22;;;;;;;10.70;6.80;;;16.30;60.10;;;;;;5076152;28;20032;-79
2023/04/29 08:35:48;;;;;;;9.50;6.65;;;16.30;63.90;;;;;;5074668;28;20028;-80
2023/04/29 08:38:14;;;;;;;11.30;6.75;;;16.30;61.10;;;;;;5074875;28;20367;-80
2023/04/29 08:40:45;;;;;;;11.88;6.32;;;16.30;59.60;;;;;;5074496;28;20478;-79
2023/04/29 08:43:14;;;;;;;8.40;6.10;;;16.30;58.50;;;;;;5076185;28;20050;-80
2023/04/29 08:45:41;;;;;;;10.02;6.50;;;16.40;58.60;;;;;;5074750;28;20078;-79
2023/04/29 08:48:07;;;;;;;7.93;6.45;;;16.50;57.00;;;;;;5074974;28;20024;-79
2023/04/29 08:50:40;;;;;;;12.18;7.05;;;16.50;58.00;;;;;;5075913;28;20104;-81
2023/04/29 08:53:06;;;;;;;10.85;7.45;;;16.50;57.00;;;;;;5075900;28;20509;-81
2023/04/29 08:55:41;;;;;;;10.63;7.28;;;16.60;58.70;;;;;;5074161;28;20063;-79
2023/04/29 08:58:08;;;;;;;13.23;7.35;;;16.60;62.50;;;;;;5074362;28;20459;-79
2023/04/29 09:00:35;;;;;;;13.13;7.93;;;16.70;61.70;;;;;;5066869;28;20422;-78
2023/04/29 09:03:23;;;;;;;14.98;7.95;;;16.80;60.70;;;;;;5065338;28;20021;-79
2023/04/29 09:05:52;;;;;;;14.95;7.95;;;16.80;60.80;;;;;;5075442;28;20063;-81
2023/04/29 09:08:21;;;;;;;11.50;7.10;;;16.90;59.90;;;;;;5075253;28;20371;-78
2023/04/29 09:10:47;;;;;;;11.63;8.32;;;17.00;59.40;;;;;;5075275;28;20017;-78
2023/04/29 09:13:24;;;;;;;12.57;8.15;;;17.00;61.60;;;;;;5068703;28;20029;-79
2023/04/29 09:15:50;;;;;;;14.63;8.43;;;17.10;59.20;;;;;;5090634;28;20081;-80
2023/04/29 09:18:41;;;;;;;11.48;8.27;;;17.20;58.30;;;;;;5077165;28;20016;-79
2023/04/29 09:21:25;;;;;;;21.33;10.63;;;17.20;59.10;;;;;;5054167;28;20087;-79
2023/04/29 09:24:02;;;;;;;15.35;9.73;;;17.30;57.90;;;;;;5053845;28;20033;-80
2023/04/29 09:26:41;;;;;;;14.32;8.05;;;17.40;59.60;;;;;;5074836;28;20082;-79
2023/04/29 09:29:14;;;;;;;15.85;6.88;;;17.40;58.50;;;;;;5074901;28;20027;-79
2023/04/29 09:31:41;;;;;;;10.10;6.65;;;17.40;57.90;;;;;;5069110;28;20068;-80
2023/04/29 09:34:07;;;;;;;9.45;6.28;;;17.50;57.80;;;;;;5073583;28;20336;-80
2023/04/29 09:36:43;;;;;;;9.68;6.05;;;17.50;56.90;;;;;;5073922;28;20040;-78
2023/04/29 09:39:15;;;;;;;8.50;5.70;;;17.50;56.30;;;;;;5074618;28;20024;-78
2023/04/29 09:42:02;;;;;;;12.27;6.45;;;17.40;55.30;;;;;;5074320;28;20044;-79
2023/04/29 09:44:36;;;;;;;9.93;5.88;;;17.40;55.00;;;;;;5072619;28;20039;-81
2023/04/29 09:47:04;;;;;;;9.60;5.72;;;17.40;54.80;;;;;;5073468;28;20021;-79
2023/04/29 09:49:36;;;;;;;11.63;6.45;;;17.50;55.50;;;;;;5068736;28;20111;-81
2023/04/29 09:52:04;;;;;;;12.38;6.32;;;17.50;57.60;;;;;;5073810;28;20016;-79
2023/04/29 09:54:32;;;;;;;15.65;6.50;;;17.60;56.50;;;;;;5072371;28;20032;-79
2023/04/29 09:56:59;;;;;;;8.55;6.22;;;18.00;57.30;;;;;;5070805;28;20024;-79
2023/04/29 09:59:26;;;;;;;13.00;8.23;;;18.10;56.00;;;;;;5066900;28;20025;-78
2023/04/29 10:01:53;;;;;;;11.13;6.68;;;18.30;54.40;;;;;;5071392;28;20020;-79
2023/04/29 10:04:21;;;;;;;9.68;6.57;;;18.40;55.00;;;;;;5071674;28;20028;-78
2023/04/29 10:06:50;;;;;;;7.63;5.88;;;18.50;56.50;;;;;;5073026;28;20081;-80
2023/04/29 10:09:16;;;;;;;10.07;6.90;;;18.50;54.70;;;;;;5077400;28;20043;-79
2023/04/29 10:11:47;;;;;;;7.78;5.75;;;18.70;54.80;;;;;;5076260;28;20017;-79
2023/04/29 10:14:21;;;;;;;9.55;6.00;;;18.70;52.20;;;;;;5072812;28;20026;-79
2023/04/29 10:17:08;;;;;;;12.68;7.63;;;19.00;54.50;;;;;;5074708;28;20021;-79
2023/04/29 10:19:44;;;;;;;9.18;6.45;;;19.30;51.70;;;;;;5073955;28;20055;-79
2023/04/29 10:22:17;;;;;;;16.67;8.82;;;19.60;52.10;;;;;;5073769;28;20367;-79
2023/04/29 10:24:44;;;;;;;10.27;7.43;;;19.80;53.60;;;;;;5074195;28;20036;-78
2023/04/29 10:27:12;;;;;;;12.57;6.55;;;19.80;51.80;;;;;;5072276;28;20463;-79
2023/04/29 10:29:40;;;;;;;12.15;6.07;;;20.00;50.00;;;;;;5083762;28;20028;-79
2023/04/29 10:32:09;;;;;;;11.98;6.82;;;20.00;47.90;;;;;;5074380;28;20077;-78
2023/04/29 10:34:38;;;;;;;9.85;6.13;;;20.00;52.70;;;;;;5073550;28;20025;-79
2023/04/29 10:37:10;;;;;;;15.57;7.97;;;20.20;49.40;;;;;;5073716;28;20074;-79
2023/04/29 10:39:42;;;;;;;;;;;20.20;47.80;;;;;;5072935;28;20024;-79
2023/04/29 10:42:30;;;;;;;11.32;7.60;;;20.50;50.20;;;;;;5071752;28;19942;-79
2023/04/29 10:45:30;;;;;;;10.00;7.05;;;20.70;52.20;;;;;;5066668;28;20024;-80
2023/04/29 10:48:10;;;;;;;8.57;6.63;;;20.80;49.50;;;;;;5064005;28;20426;-81
2023/04/29 10:50:48;;;;;;;7.70;6.25;;;20.70;49.20;;;;;;5052646;28;20163;-82
2023/04/29 10:53:15;;;;;;;7.90;6.22;;;20.60;49.00;;;;;;5071709;28;20029;-81
2023/04/29 10:55:42;;;;;;;12.73;6.15;;;20.80;50.10;;;;;;5072201;28;20035;-79
2023/04/29 10:58:42;;;;;;;8.27;6.07;;;20.90;50.00;;;;;;5073385;28;20479;-78
2023/04/29 11:01:12;;;;;;;13.65;6.82;;;;;;;;;;5070959;28;20029;-78
2023/04/29 11:04:03;;;;;;;11.05;6.80;;;21.20;49.30;;;;;;5071598;28;20055;-77
2023/04/29 11:06:34;;;;;;;11.13;5.32;;;21.40;49.00;;;;;;5054514;28;20028;-78
2023/04/29 11:09:24;;;;;;;7.95;6.57;;;21.10;47.70;;;;;;5054101;28;20063;-80
2023/04/29 11:12:04;;;;;;;12.32;7.00;;;21.10;50.50;;;;;;5055678;28;20056;-80
2023/04/29 11:14:32;;;;;;;7.90;5.75;;;21.00;51.30;;;;;;5074843;28;20102;-79
2023/04/29 11:17:00;;;;;;;8.60;6.72;;;21.00;51.30;;;;;;5075401;28;20044;-80
2023/04/29 11:19:40;;;;;;;7.78;6.50;;;21.20;49.50;;;;;;5058464;28;20028;-79
2023/04/29 11:22:25;;;;;;;11.25;6.55;;;21.20;47.40;;;;;;5058311;28;20033;-79
2023/04/29 11:24:57;;;;;;;10.52;7.22;;;21.30;50.00;;;;;;5073625;28;20101;-79
2023/04/29 11:27:25;;;;;;;9.35;5.57;;;21.70;50.30;;;;;;5067749;28;20032;-79
2023/04/29 11:29:58;;;;;;;7.93;6.25;;;21.60;49.90;;;;;;5058079;28;20031;-81
2023/04/29 11:32:28;;;;;;;13.55;6.97;;;22.30;49.40;;;;;;5066979;28;20539;-78
2023/04/29 11:34:54;;;;;;;7.75;6.30;;;22.20;49.70;;;;;;5076060;28;20454;-80
2023/04/29 11:37:25;;;;;;;8.93;6.07;;;22.20;47.30;;;;;;5077056;28;20029;-80
2023/04/29 11:40:00;;;;;;;11.98;6.63;;;22.20;48.70;;;;;;5077409;28;20103;-80
2023/04/29 11:42:27;;;;;;;10.48;6.38;;;22.00;47.80;;;;;;5075304;28;20044;-80
2023/04/29 11:44:59;;;;;;;7.20;5.30;;;21.90;48.30;;;;;;5077196;28;20028;-79
2023/04/29 11:47:25;;;;;;;;;;;21.70;45.30;;;;;;5076362;28;20520;-80
2023/04/29 11:49:52;;;;;;;11.05;6.28;;;;;;;;;;5075532;28;19907;-80
2023/04/29 11:52:18;;;;;;;6.40;5.70;;;22.80;45.00;;;;;;5076809;28;20362;-80
2023/04/29 11:54:45;;;;;;;7.53;5.57;;;;;;;;;;5076558;28;20032;-80
2023/04/29 11:57:11;;;;;;;7.38;6.05;;;23.10;44.40;;;;;;5076310;28;20393;-80
2023/04/29 11:59:37;;;;;;;14.02;5.88;;;23.40;42.30;;;;;;5075681;28;20035;-79
2023/04/29 12:02:02;;;;;;;8.80;5.68;;;23.50;41.70;;;;;;5075740;28;20055;-79
2023/04/29 12:04:28;;;;;;;7.47;6.15;;;23.40;42.10;;;;;;5076489;28;20110;-79
2023/04/29 12:06:57;;;;;;;6.78;6.05;;;;;;;;;;5075517;28;20366;-80
2023/04/29 12:09:23;;;;;;;10.05;6.07;;;;;;;;;;5076745;28;20013;-79
2023/04/29 12:11:49;;;;;;;8.15;5.57;;;24.10;42.70;;;;;;5075209;28;20405;-82
2023/04/29 12:14:16;;;;;;;6.85;6.10;;;;;;;;;;5075157;28;20035;-79
2023/04/29 12:16:42;;;;;;;7.03;5.53;;;24.60;82.40;;;;;;5075023;28;20020;-80
2023/04/29 12:19:09;;;;;;;6.32;5.45;;;24.20;42.80;;;;;;5076276;28;20034;-78
2023/04/29 12:21:35;;;;;;;8.02;5.60;;;24.20;41.50;;;;;;5075186;28;20039;-80
2023/04/29 12:24:02;;;;;;;9.05;5.15;;;24.30;40.10;;;;;;5075054;28;20028;-80
2023/04/29 12:26:30;;;;;;;6.78;5.10;;;24.00;40.60;;;;;;5075812;28;20057;-81
2023/04/29 12:28:58;;;;;;;8.00;5.43;;;;;;;;;;5075166;28;20056;-80
2023/04/29 12:31:32;;;;;;;7.57;5.93;;;24.40;40.20;;;;;;5074828;28;20100;-80
2023/04/29 12:33:57;;;;;;;6.30;5.70;;;24.40;39.10;;;;;;5076210;28;20099;-80
2023/04/29 12:36:23;;;;;;;6.20;5.60;;;24.00;42.00;;;;;;5076513;28;20034;-79
2023/04/29 12:38:49;;;;;;;5.30;4.75;;;23.70;40.70;;;;;;5074921;28;20020;-79
2023/04/29 12:41:16;;;;;;;6.45;5.90;;;23.20;42.40;;;;;;5074563;28;20028;-80
2023/04/29 12:43:43;;;;;;;7.00;6.30;;;23.40;42.30;;;;;;5076401;28;20042;-80
2023/04/29 12:46:13;;;;;;;9.55;6.50;;;;;;;;;;5075457;28;20379;-79
2023/04/29 12:48:40;;;;;;;6.75;6.07;;;;;;;;;;5074768;28;20455;-80
2023/04/29 12:51:10;;;;;;;6.72;6.10;;;;;;;;;;5074724;28;20020;-79